Terminal Aerodrome Forecast
Issued by NWS Pueblo, CO

Home | Current Version | Previous Version | Text Only | Print | Product List | Glossary On
Versions: 1 2 3 4 5 6 7 8 9 10 11 12 13 14 15 16 17 18 19 20 21 22 23 24 25 26 27 28 29 30 31 32 33 34 35 36
000
FTUS45 KPUB 252245 AAB
TAFCOS
TAF AMD
KCOS 252245Z 2523/2618 16010G20KT P6SM VCTS SCT060CB BKN120
      TEMPO 2523/2601 VRB20G30KT 3SM -TSRA SCT030 BKN050CB
     FM260100 01010KT P6SM VCTS SCT040 BKN060CB
     FM260200 36010KT P6SM FEW030 SCT050 BKN100
     FM260500 VRB05KT P6SM SCT070 SCT120=

USA.gov is the U.S. government's official web portal to all federal, state and local government web resources and services.